Time;durP1;ratioP1;P1;durP2;ratioP2;P2;SDS_P1;SDS_P2;PMS_P1;PMS_P2;Temp;Humidity;BMP_temperature;BMP_pressure;BME280_temperature;BME280_humidity;BME280_pressure;Samples;Min_cycle;Max_cycle;Signal;HPM_P1;HPM_P2
2022/09/25 00:01:43;;;;;;;21.23;15.20;;;13.10;99.90;;;;;;5021365;28;20211;-49
2022/09/25 00:04:10;;;;;;;26.63;15.67;;;13.10;99.90;;;;;;5045136;28;20204;-48
2022/09/25 00:06:38;;;;;;;27.03;15.00;;;13.00;99.90;;;;;;5035517;28;20226;-44
2022/09/25 00:09:07;;;;;;;27.23;16.40;;;13.00;99.90;;;;;;5042210;28;20203;-46
2022/09/25 00:11:35;;;;;;;28.37;15.33;;;12.90;99.90;;;;;;5040296;28;20227;-49
2022/09/25 00:14:02;;;;;;;27.87;15.10;;;13.00;99.90;;;;;;5040601;28;20199;-48
2022/09/25 00:16:31;;;;;;;27.77;15.93;;;12.90;99.90;;;;;;5028075;28;20737;-43
2022/09/25 00:21:50;;;;;;;36.43;17.40;;;12.90;99.90;;;;;;5041317;28;20834;-46
2022/09/25 00:24:17;;;;;;;32.20;17.23;;;12.90;99.90;;;;;;5049407;28;20207;-44
2022/09/25 00:26:45;;;;;;;30.73;16.07;;;12.90;99.90;;;;;;5058600;28;20214;-47
2022/09/25 00:29:15;;;;;;;34.80;17.40;;;12.90;99.90;;;;;;5048673;28;20283;-45
2022/09/25 00:31:42;;;;;;;32.07;17.10;;;12.90;99.90;;;;;;5029377;28;20199;-46
2022/09/25 00:34:10;;;;;;;34.43;17.30;;;13.00;99.90;;;;;;5043645;28;20207;-44
2022/09/25 00:36:37;;;;;;;34.67;18.80;;;13.00;99.90;;;;;;5042652;28;20222;-48
2022/09/25 00:39:04;;;;;;;36.17;17.63;;;13.00;99.90;;;;;;5043740;28;20691;-46
2022/09/25 00:41:31;;;;;;;38.37;18.90;;;13.00;99.90;;;;;;5063491;28;20678;-47
2022/09/25 00:44:02;;;;;;;39.93;18.63;;;13.00;99.90;;;;;;5043136;28;20337;-46
2022/09/25 00:46:31;;;;;;;37.00;18.83;;;13.00;99.90;;;;;;5039113;28;20212;-46
2022/09/25 00:49:02;;;;;;;31.07;18.10;;;13.00;99.90;;;;;;5033674;28;20564;-48
2022/09/25 00:51:33;;;;;;;37.87;19.00;;;13.00;99.90;;;;;;5044399;28;20199;-48
2022/09/25 00:54:05;;;;;;;36.17;18.33;;;13.00;99.90;;;;;;5041205;28;20293;-45
2022/09/25 00:56:37;;;;;;;38.40;18.87;;;13.00;99.90;;;;;;5053254;28;20215;-46
2022/09/25 00:59:08;;;;;;;40.50;19.83;;;13.10;99.90;;;;;;5045233;28;20646;-46
2022/09/25 01:01:34;;;;;;;39.27;18.93;;;13.10;99.90;;;;;;5034903;28;20192;-48
2022/09/25 01:04:01;;;;;;;40.60;19.47;;;13.00;99.90;;;;;;5037670;28;20249;-43
2022/09/25 01:06:29;;;;;;;35.43;17.53;;;13.00;99.90;;;;;;5044582;28;20215;-48
2022/09/25 01:08:57;;;;;;;33.47;18.10;;;13.00;99.90;;;;;;5040776;28;20823;-45
2022/09/25 01:11:24;;;;;;;36.30;18.80;;;13.00;99.90;;;;;;5064964;28;20187;-45
2022/09/25 01:13:55;;;;;;;34.83;17.57;;;13.00;99.90;;;;;;5055994;28;20918;-45
2022/09/25 01:16:32;;;;;;;33.30;18.30;;;13.00;99.90;;;;;;5034741;28;20241;-44
2022/09/25 01:19:13;;;;;;;33.37;17.90;;;13.00;99.90;;;;;;5028796;28;20211;-45
2022/09/25 01:21:46;;;;;;;31.03;16.47;;;13.00;99.90;;;;;;5048104;28;20211;-46
2022/09/25 01:24:42;;;;;;;26.60;16.57;;;13.00;99.90;;;;;;5037809;28;20202;-46
2022/09/25 01:27:28;;;;;;;37.97;19.77;;;13.00;99.90;;;;;;5023971;28;20238;-48
2022/09/25 01:30:04;;;;;;;42.73;19.57;;;13.00;99.90;;;;;;5039920;28;20198;-44
2022/09/25 01:32:38;;;;;;;39.53;19.07;;;12.90;99.90;;;;;;5042034;28;20194;-44
2022/09/25 01:35:12;;;;;;;38.13;19.17;;;12.90;99.90;;;;;;5030377;28;20209;-44
2022/09/25 01:37:44;;;;;;;42.13;19.43;;;12.90;99.90;;;;;;5040741;28;20972;-44
2022/09/25 01:40:17;;;;;;;39.83;19.87;;;12.90;99.90;;;;;;5041499;28;20226;-43
2022/09/25 01:42:48;;;;;;;37.37;19.63;;;13.00;99.90;;;;;;5042085;28;20211;-45
2022/09/25 01:45:21;;;;;;;48.87;22.27;;;13.00;99.90;;;;;;5041211;28;20203;-49
2022/09/25 01:47:50;;;;;;;44.67;20.60;;;13.00;99.90;;;;;;5044689;28;20208;-48
2022/09/25 01:50:23;;;;;;;40.30;19.93;;;13.00;99.90;;;;;;5025525;28;20253;-46
2022/09/25 01:52:55;;;;;;;37.00;19.30;;;13.00;99.90;;;;;;5038417;28;20195;-46
2022/09/25 01:55:27;;;;;;;43.90;20.83;;;13.00;99.90;;;;;;5035773;28;20683;-46
2022/09/25 01:58:02;;;;;;;37.83;20.27;;;13.00;99.90;;;;;;5042175;28;20195;-47
2022/09/25 02:00:32;;;;;;;43.67;21.17;;;13.00;99.90;;;;;;5040848;28;20237;-46
2022/09/25 02:03:07;;;;;;;47.67;21.83;;;13.00;99.90;;;;;;5044426;28;20202;-46
2022/09/25 02:05:39;;;;;;;43.07;20.20;;;13.00;99.90;;;;;;5027718;28;20225;-47
2022/09/25 02:08:12;;;;;;;43.07;20.23;;;13.00;99.90;;;;;;5044953;28;20234;-47
2022/09/25 02:10:44;;;;;;;47.10;21.97;;;13.00;99.90;;;;;;5033898;28;20234;-45
2022/09/25 02:13:16;;;;;;;36.50;19.67;;;13.00;99.90;;;;;;5037746;28;20207;-48
2022/09/25 02:15:49;;;;;;;38.77;19.57;;;13.00;99.90;;;;;;5035881;28;20247;-44
2022/09/25 02:21:13;;;;;;;41.03;20.57;;;13.00;99.90;;;;;;5031005;28;20258;-48
2022/09/25 02:23:48;;;;;;;41.40;20.73;;;13.00;99.90;;;;;;5045932;28;20199;-47
2022/09/25 02:26:22;;;;;;;41.00;19.93;;;13.00;99.90;;;;;;5041048;28;20211;-50
2022/09/25 02:28:52;;;;;;;40.47;20.70;;;13.00;99.90;;;;;;5048670;28;20206;-46
2022/09/25 02:31:24;;;;;;;38.83;20.37;;;13.00;99.90;;;;;;5046552;28;20283;-45
2022/09/25 02:33:52;;;;;;;34.47;18.77;;;13.00;99.90;;;;;;5042977;28;20282;-45
2022/09/25 02:36:22;;;;;;;37.37;19.40;;;13.00;99.90;;;;;;5023230;28;20219;-45
2022/09/25 02:38:51;;;;;;;35.23;19.07;;;13.00;99.90;;;;;;5037683;28;20192;-44
2022/09/25 02:41:31;;;;;;;37.07;19.43;;;13.00;99.90;;;;;;5040438;28;20706;-48
2022/09/25 02:44:08;;;;;;;35.93;19.03;;;13.10;99.90;;;;;;5038015;28;20207;-49
2022/09/25 02:46:44;;;;;;;30.10;17.63;;;13.00;99.90;;;;;;5040698;28;20211;-49
2022/09/25 02:49:21;;;;;;;32.80;18.13;;;13.00;99.90;;;;;;5037516;28;20486;-45
2022/09/25 02:51:54;;;;;;;32.87;17.97;;;13.00;99.90;;;;;;5031014;28;20207;-48
2022/09/25 02:54:27;;;;;;;30.30;17.30;;;13.00;99.90;;;;;;5040115;28;20207;-46
2022/09/25 02:57:01;;;;;;;26.37;16.53;;;13.00;99.90;;;;;;5043248;28;20215;-46
2022/09/25 02:59:34;;;;;;;25.47;15.90;;;13.00;99.90;;;;;;5036066;28;20714;-46
2022/09/25 03:02:03;;;;;;;30.20;16.83;;;13.00;99.90;;;;;;5058062;28;20215;-45
2022/09/25 03:04:33;;;;;;;26.90;15.43;;;13.00;99.90;;;;;;5039069;28;20381;-45
2022/09/25 03:07:01;;;;;;;29.37;16.57;;;13.00;99.90;;;;;;5031076;28;20223;-46
2022/09/25 03:09:31;;;;;;;29.00;16.87;;;13.00;99.90;;;;;;5040861;28;20276;-47
2022/09/25 03:11:58;;;;;;;30.27;18.40;;;13.00;99.90;;;;;;5043245;28;20207;-46
2022/09/25 03:14:27;;;;;;;30.37;17.87;;;13.00;99.90;;;;;;5034129;28;20199;-45
2022/09/25 03:16:56;;;;;;;31.93;17.20;;;13.00;99.90;;;;;;5043284;28;20211;-44
2022/09/25 03:19:26;;;;;;;31.40;19.63;;;13.00;99.90;;;;;;5039091;28;20875;-46
2022/09/25 03:21:53;;;;;;;39.43;21.30;;;13.00;99.90;;;;;;5030917;28;20211;-44
2022/09/25 03:24:20;;;;;;;33.97;19.77;;;12.90;99.90;;;;;;5029009;28;20286;-45
2022/09/25 03:26:47;;;;;;;31.27;20.53;;;12.90;99.90;;;;;;5048248;28;20761;-51
2022/09/25 03:29:16;;;;;;;30.30;19.93;;;12.90;99.90;;;;;;5040411;28;20187;-47
2022/09/25 03:31:44;;;;;;;33.77;20.97;;;12.90;99.90;;;;;;5037198;28;20660;-45
2022/09/25 03:34:12;;;;;;;34.90;19.83;;;12.90;99.90;;;;;;5040050;28;20191;-48
2022/09/25 03:36:41;;;;;;;31.70;20.60;;;12.90;99.90;;;;;;5041465;28;20211;-46
2022/09/25 03:39:09;;;;;;;32.70;21.23;;;12.90;99.90;;;;;;5027929;28;20565;-47
2022/09/25 03:41:36;;;;;;;33.77;21.30;;;13.00;99.90;;;;;;5043991;28;20250;-47
2022/09/25 03:44:04;;;;;;;30.57;20.13;;;12.90;99.90;;;;;;5041636;28;20295;-44
2022/09/25 03:46:32;;;;;;;32.70;20.30;;;12.90;99.90;;;;;;5040068;28;20214;-47
2022/09/25 03:49:00;;;;;;;37.30;21.83;;;12.90;99.90;;;;;;5042898;28;20187;-44
2022/09/25 03:51:29;;;;;;;34.10;21.40;;;12.90;99.90;;;;;;5038929;28;20263;-46
2022/09/25 03:53:58;;;;;;;34.10;21.60;;;13.00;99.90;;;;;;5029906;28;20226;-48
2022/09/25 03:56:26;;;;;;;34.67;22.10;;;12.90;99.90;;;;;;5033397;28;20223;-46
2022/09/25 03:58:55;;;;;;;33.83;20.83;;;12.90;99.90;;;;;;5042579;28;20254;-45
2022/09/25 04:01:23;;;;;;;31.37;21.27;;;12.90;99.90;;;;;;5039637;28;20214;-45
2022/09/25 04:03:50;;;;;;;38.03;23.03;;;12.90;99.90;;;;;;5035864;28;20938;-45
2022/09/25 04:06:19;;;;;;;31.93;21.83;;;13.00;99.90;;;;;;5044745;28;20703;-47
2022/09/25 04:08:47;;;;;;;35.33;21.77;;;13.00;99.90;;;;;;5030597;28;20672;-47
2022/09/25 04:11:17;;;;;;;36.47;21.40;;;13.00;99.90;;;;;;5040651;28;20549;-46
2022/09/25 04:13:45;;;;;;;30.30;21.10;;;13.00;99.90;;;;;;5041868;28;20678;-47
2022/09/25 04:16:13;;;;;;;34.97;22.70;;;13.00;99.90;;;;;;5040107;28;20223;-49
2022/09/25 04:18:41;;;;;;;33.57;21.87;;;13.00;99.90;;;;;;5043232;28;20188;-45
2022/09/25 04:21:10;;;;;;;36.57;21.03;;;12.90;99.90;;;;;;5045277;28;20216;-46
2022/09/25 04:23:38;;;;;;;35.83;21.57;;;12.90;99.90;;;;;;5035284;28;20203;-49
2022/09/25 04:26:06;;;;;;;36.00;21.47;;;12.90;99.90;;;;;;5035364;28;20645;-45
2022/09/25 04:28:35;;;;;;;32.60;21.17;;;12.90;99.90;;;;;;5044778;28;20199;-46
2022/09/25 04:31:02;;;;;;;33.73;21.77;;;12.90;99.90;;;;;;5044067;28;20188;-45
2022/09/25 04:33:46;;;;;;;32.67;21.07;;;13.00;99.90;;;;;;5040945;28;20233;-48
2022/09/25 04:36:14;;;;;;;33.47;21.07;;;13.00;99.90;;;;;;5044109;28;20214;-44
2022/09/25 04:38:41;;;;;;;33.17;21.30;;;13.00;99.90;;;;;;5028943;28;20199;-44
2022/09/25 04:41:08;;;;;;;34.57;21.47;;;13.00;99.90;;;;;;5041288;28;20304;-46
2022/09/25 04:43:36;;;;;;;32.97;22.33;;;13.00;99.90;;;;;;5043470;28;20191;-47
2022/09/25 04:46:04;;;;;;;35.50;21.70;;;13.00;99.90;;;;;;5040110;28;20223;-49
2022/09/25 04:48:33;;;;;;;34.73;21.33;;;13.00;99.90;;;;;;5044027;28;20199;-46
2022/09/25 04:51:00;;;;;;;33.13;21.77;;;12.90;99.90;;;;;;5040756;28;20238;-46
2022/09/25 04:53:28;;;;;;;35.10;21.70;;;12.90;99.90;;;;;;5044758;28;20191;-47
2022/09/25 04:55:59;;;;;;;35.67;21.50;;;12.90;99.90;;;;;;5024360;28;20340;-46
2022/09/25 04:58:26;;;;;;;38.17;22.17;;;13.00;99.90;;;;;;5046604;28;20727;-47
2022/09/25 05:00:54;;;;;;;34.23;20.70;;;13.00;99.90;;;;;;5041637;28;20226;-47
2022/09/25 05:03:21;;;;;;;35.80;20.50;;;13.00;99.90;;;;;;5045509;28;20244;-49
2022/09/25 05:05:49;;;;;;;29.27;20.57;;;13.00;99.90;;;;;;5044670;28;20268;-45
2022/09/25 05:08:16;;;;;;;31.77;19.47;;;13.00;99.90;;;;;;5048018;28;20206;-44
2022/09/25 05:10:43;;;;;;;34.20;19.20;;;12.90;99.90;;;;;;5031106;28;20180;-48
2022/09/25 05:13:10;;;;;;;35.10;20.73;;;13.00;99.90;;;;;;5038438;28;20728;-47
2022/09/25 05:15:37;;;;;;;30.13;19.80;;;13.00;99.90;;;;;;5040885;28;20238;-46
2022/09/25 05:18:08;;;;;;;37.13;21.27;;;13.00;99.90;;;;;;5043616;28;20226;-44
2022/09/25 05:20:35;;;;;;;40.20;23.17;;;13.00;99.90;;;;;;5042389;28;20699;-47
2022/09/25 05:23:03;;;;;;;38.03;23.40;;;13.00;99.90;;;;;;5040405;28;20742;-44
2022/09/25 05:25:31;;;;;;;38.57;22.17;;;13.00;99.90;;;;;;5050721;28;20223;-48
2022/09/25 05:27:58;;;;;;;38.20;22.07;;;13.00;99.90;;;;;;5032446;28;20203;-44
2022/09/25 05:30:26;;;;;;;34.07;22.23;;;13.00;99.90;;;;;;5039824;28;20203;-46
2022/09/25 05:32:53;;;;;;;40.33;23.07;;;13.00;99.90;;;;;;5040080;28;20199;-44
2022/09/25 05:35:22;;;;;;;33.57;21.87;;;13.00;99.90;;;;;;5042600;28;20715;-47
2022/09/25 05:37:50;;;;;;;38.97;22.97;;;13.00;99.90;;;;;;5040641;28;20191;-48
2022/09/25 05:40:18;;;;;;;32.53;21.23;;;13.00;99.90;;;;;;5044213;28;20206;-48
2022/09/25 05:42:45;;;;;;;34.63;21.93;;;13.00;99.90;;;;;;5026797;28;20265;-47
2022/09/25 05:45:12;;;;;;;31.13;19.83;;;13.00;99.90;;;;;;5035177;28;20805;-48
2022/09/25 05:47:40;;;;;;;33.80;20.00;;;13.00;99.90;;;;;;5038439;28;20215;-44
2022/09/25 05:50:08;;;;;;;35.07;22.23;;;13.00;99.90;;;;;;5042476;28;20702;-50
2022/09/25 05:52:36;;;;;;;36.93;21.57;;;13.00;99.90;;;;;;5029379;28;20203;-46
2022/09/25 05:55:05;;;;;;;33.83;22.17;;;13.00;99.90;;;;;;5041530;28;20661;-46
2022/09/25 05:57:32;;;;;;;36.20;23.07;;;13.00;99.90;;;;;;5035851;28;20211;-44
2022/09/25 05:59:58;;;;;;;34.77;22.17;;;13.00;99.90;;;;;;5035654;28;20393;-47
2022/09/25 06:02:25;;;;;;;32.33;20.97;;;13.00;99.90;;;;;;5040940;28;20717;-46
2022/09/25 06:04:52;;;;;;;37.80;23.77;;;13.10;99.90;;;;;;5038541;28;20249;-44
2022/09/25 06:07:19;;;;;;;34.70;22.23;;;13.10;99.90;;;;;;5036295;28;20234;-46
2022/09/25 06:09:46;;;;;;;35.70;22.57;;;13.10;99.90;;;;;;5040037;28;20184;-48
2022/09/25 06:12:13;;;;;;;37.90;24.53;;;13.10;99.90;;;;;;5041951;28;20192;-44
2022/09/25 06:14:40;;;;;;;37.37;23.97;;;13.10;99.90;;;;;;5025199;28;20230;-45
2022/09/25 06:17:07;;;;;;;37.47;23.33;;;13.10;99.90;;;;;;5039843;28;20761;-46
2022/09/25 06:19:34;;;;;;;35.50;22.83;;;13.10;99.90;;;;;;5041311;28;20206;-46
2022/09/25 06:22:01;;;;;;;35.77;21.43;;;13.10;99.90;;;;;;5034106;28;20361;-47
2022/09/25 06:24:28;;;;;;;38.23;24.43;;;13.10;99.90;;;;;;5041119;28;20260;-47
2022/09/25 06:26:56;;;;;;;32.00;22.33;;;13.10;99.90;;;;;;5039270;28;20963;-50
2022/09/25 06:29:22;;;;;;;39.27;24.03;;;13.10;99.90;;;;;;5029506;28;20203;-49
2022/09/25 06:31:49;;;;;;;35.57;23.83;;;13.10;99.90;;;;;;5039181;28;20276;-47
2022/09/25 06:34:15;;;;;;;35.53;22.47;;;13.10;99.90;;;;;;5042144;28;20191;-50
2022/09/25 06:36:42;;;;;;;32.93;22.23;;;13.10;99.90;;;;;;5038740;28;20207;-45
2022/09/25 06:39:08;;;;;;;32.03;20.97;;;13.10;99.90;;;;;;5035366;28;20636;-44
2022/09/25 06:41:35;;;;;;;34.60;22.40;;;13.00;99.90;;;;;;5040159;28;20219;-47
2022/09/25 06:44:03;;;;;;;31.47;21.17;;;13.10;99.90;;;;;;5039255;28;20456;-45
2022/09/25 06:46:30;;;;;;;30.43;19.50;;;13.10;99.90;;;;;;5026430;28;20246;-47
2022/09/25 06:48:57;;;;;;;31.70;19.37;;;13.10;99.90;;;;;;5041002;28;20196;-46
2022/09/25 06:51:31;;;;;;;28.20;17.57;;;13.10;99.90;;;;;;5039956;28;20242;-45
2022/09/25 06:53:58;;;;;;;25.13;17.73;;;13.10;99.90;;;;;;5030764;28;20206;-48
2022/09/25 06:56:25;;;;;;;24.80;17.47;;;13.10;99.90;;;;;;5040431;28;20318;-47
2022/09/25 06:58:52;;;;;;;20.50;14.73;;;13.10;99.90;;;;;;5040352;28;20187;-45
2022/09/25 07:01:20;;;;;;;18.27;13.87;;;13.10;99.90;;;;;;5024848;28;20223;-46
2022/09/25 07:03:48;;;;;;;16.40;13.53;;;13.10;99.90;;;;;;5038559;28;20195;-45
2022/09/25 07:06:16;;;;;;;18.37;13.43;;;13.10;99.90;;;;;;5040387;28;20219;-46
2022/09/25 07:08:43;;;;;;;18.67;13.50;;;13.10;99.90;;;;;;5032679;28;20444;-49
2022/09/25 07:11:14;;;;;;;21.07;13.37;;;13.10;99.90;;;;;;5042090;28;20664;-46
2022/09/25 07:13:41;;;;;;;19.13;13.73;;;13.10;99.90;;;;;;5032149;28;20219;-44
2022/09/25 07:16:12;;;;;;;16.43;12.50;;;13.10;99.90;;;;;;5041259;28;20301;-48
2022/09/25 07:18:40;;;;;;;19.20;13.30;;;13.10;99.90;;;;;;5026323;28;20257;-46
2022/09/25 07:21:08;;;;;;;17.70;13.10;;;13.20;99.90;;;;;;5041987;28;20229;-47
2022/09/25 07:23:36;;;;;;;13.27;10.07;;;13.10;99.90;;;;;;5032497;28;20206;-45
2022/09/25 07:26:08;;;;;;;14.07;10.47;;;13.10;99.90;;;;;;5034151;28;20223;-47
2022/09/25 07:28:35;;;;;;;10.60;7.80;;;13.20;99.90;;;;;;5037864;28;20187;-46
2022/09/25 07:31:14;;;;;;;10.47;6.83;;;13.10;99.90;;;;;;5038754;28;20198;-44
2022/09/25 07:33:42;;;;;;;8.20;5.80;;;13.00;99.90;;;;;;5028314;28;20214;-45
2022/09/25 07:36:09;;;;;;;6.33;5.70;;;13.10;99.90;;;;;;5039586;28;20222;-45
2022/09/25 07:38:36;;;;;;;6.43;4.60;;;13.00;99.90;;;;;;5038862;28;20198;-45
2022/09/25 07:41:05;;;;;;;6.57;5.47;;;13.00;99.90;;;;;;5036984;28;20703;-46
2022/09/25 07:43:31;;;;;;;6.30;5.03;;;13.00;99.90;;;;;;5039701;28;20207;-46
2022/09/25 07:45:58;;;;;;;6.33;5.80;;;13.00;99.90;;;;;;5046055;28;20225;-46
2022/09/25 07:48:25;;;;;;;7.83;6.27;;;13.00;99.90;;;;;;5031233;28;20211;-49
2022/09/25 07:50:54;;;;;;;6.47;5.80;;;12.90;99.90;;;;;;5042128;28;20209;-46
2022/09/25 07:53:21;;;;;;;7.97;6.53;;;13.00;99.90;;;;;;5046899;28;20647;-46
2022/09/25 07:55:48;;;;;;;7.43;6.63;;;13.00;99.90;;;;;;5036493;28;20448;-46
2022/09/25 07:58:18;;;;;;;11.23;7.53;;;13.00;99.90;;;;;;5039003;28;20203;-48
2022/09/25 08:00:45;;;;;;;9.77;7.83;;;13.00;99.90;;;;;;5042959;28;20191;-47
2022/09/25 08:03:12;;;;;;;10.37;8.57;;;13.00;99.90;;;;;;5043667;28;20562;-47
2022/09/25 08:05:39;;;;;;;9.47;8.13;;;13.00;99.90;;;;;;5032408;28;20203;-47
2022/09/25 08:08:07;;;;;;;11.47;8.97;;;13.00;99.90;;;;;;5044640;28;20253;-47
2022/09/25 08:10:34;;;;;;;10.43;8.67;;;13.00;99.90;;;;;;5041663;28;20335;-45
2022/09/25 08:13:00;;;;;;;10.87;9.60;;;13.00;99.90;;;;;;5031374;28;20195;-45
2022/09/25 08:15:27;;;;;;;11.17;9.93;;;13.00;99.90;;;;;;5041266;28;20281;-49
2022/09/25 08:17:54;;;;;;;11.73;9.57;;;13.00;99.90;;;;;;5041053;28;20191;-45
2022/09/25 08:20:21;;;;;;;13.00;9.97;;;13.10;99.90;;;;;;5028974;28;20211;-45
2022/09/25 08:22:48;;;;;;;13.00;10.00;;;13.10;99.90;;;;;;5042931;28;20211;-45
2022/09/25 08:25:17;;;;;;;12.93;10.10;;;13.10;99.90;;;;;;5045502;28;20541;-44
2022/09/25 08:27:43;;;;;;;12.67;9.73;;;13.10;99.90;;;;;;5040833;28;20210;-51
2022/09/25 08:30:12;;;;;;;11.20;9.87;;;13.10;99.90;;;;;;5034391;28;20258;-49
2022/09/25 08:32:39;;;;;;;11.30;10.10;;;13.10;99.90;;;;;;5042081;28;20196;-44
2022/09/25 08:35:07;;;;;;;12.07;9.83;;;13.10;99.90;;;;;;5029260;28;20568;-46
2022/09/25 08:37:34;;;;;;;12.60;10.20;;;13.10;99.90;;;;;;5041784;28;20215;-44
2022/09/25 08:40:02;;;;;;;9.83;8.70;;;13.00;99.90;;;;;;5041610;28;20195;-46
2022/09/25 08:42:34;;;;;;;11.17;9.70;;;13.00;99.90;;;;;;5045666;28;20671;-44
2022/09/25 08:50:40;;;;;;;10.50;8.97;;;13.00;99.90;;;;;;5029997;28;20203;-46
2022/09/25 08:53:11;;;;;;;9.87;8.87;;;13.10;99.90;;;;;;5035345;28;20291;-45
2022/09/25 08:58:30;;;;;;;10.77;9.57;;;13.10;99.90;;;;;;5047318;28;20946;-44
2022/09/25 09:01:00;;;;;;;10.93;9.40;;;13.10;99.90;;;;;;5039811;28;20202;-46
2022/09/25 09:03:31;;;;;;;10.43;8.60;;;13.10;99.90;;;;;;5034289;28;20223;-44
2022/09/25 09:06:02;;;;;;;10.67;9.10;;;13.10;99.90;;;;;;5030238;28;20226;-46
2022/09/25 09:08:32;;;;;;;9.60;7.93;;;13.10;99.90;;;;;;5040529;28;20195;-44
2022/09/25 09:11:02;;;;;;;9.43;8.20;;;13.00;99.90;;;;;;5043560;28;20194;-46
2022/09/25 09:13:39;;;;;;;8.27;7.47;;;13.00;99.90;;;;;;5043042;28;20203;-44
2022/09/25 09:16:09;;;;;;;8.07;7.27;;;13.00;99.90;;;;;;5035412;28;20226;-44
2022/09/25 09:18:38;;;;;;;8.70;7.80;;;13.00;99.90;;;;;;5041829;28;20253;-44
2022/09/25 09:21:13;;;;;;;9.27;7.73;;;12.90;99.90;;;;;;5042496;28;20676;-46
2022/09/25 09:23:52;;;;;;;8.13;7.40;;;12.90;99.90;;;;;;5038007;28;20218;-46
2022/09/25 09:26:24;;;;;;;8.50;7.57;;;12.90;99.90;;;;;;5039896;28;20759;-51
2022/09/25 09:29:08;;;;;;;10.13;7.73;;;12.90;99.90;;;;;;5039376;28;20547;-43
2022/09/25 09:31:46;;;;;;;8.23;7.47;;;12.90;99.90;;;;;;5027470;28;20553;-44
2022/09/25 09:34:48;;;;;;;9.53;7.53;;;12.90;99.90;;;;;;5037871;28;20203;-45
2022/09/25 09:37:19;;;;;;;9.30;7.47;;;12.90;99.90;;;;;;5031757;28;20246;-46
2022/09/25 09:39:58;;;;;;;10.70;8.27;;;13.00;99.90;;;;;;5042526;28;20684;-46
2022/09/25 09:42:33;;;;;;;8.60;7.80;;;13.00;99.90;;;;;;5040206;28;20207;-44
2022/09/25 09:45:11;;;;;;;11.37;8.00;;;13.00;99.90;;;;;;5043336;28;20296;-44
2022/09/25 09:47:49;;;;;;;10.87;8.50;;;13.00;99.90;;;;;;5033186;28;21274;-45
2022/09/25 09:50:26;;;;;;;10.47;9.37;;;13.00;99.90;;;;;;5041671;28;20651;-49
2022/09/25 09:53:00;;;;;;;10.47;9.47;;;13.00;99.90;;;;;;5030083;28;20207;-45
2022/09/25 09:55:37;;;;;;;12.70;9.73;;;13.00;99.90;;;;;;5038462;28;20195;-46
2022/09/25 09:58:13;;;;;;;10.97;9.57;;;13.00;99.90;;;;;;5042951;28;20204;-46
2022/09/25 10:00:43;;;;;;;11.27;9.80;;;13.00;99.90;;;;;;5035221;28;21086;-46
2022/09/25 10:03:14;;;;;;;15.67;9.70;;;12.90;99.90;;;;;;5038393;28;20218;-47
2022/09/25 10:05:46;;;;;;;10.67;9.67;;;13.00;99.90;;;;;;5032933;28;23078;-48
2022/09/25 10:08:13;;;;;;;17.87;10.27;;;13.00;99.90;;;;;;5034984;28;20187;-47
2022/09/25 10:10:42;;;;;;;10.83;9.73;;;13.10;99.90;;;;;;5034845;28;20979;-48
2022/09/25 10:13:15;;;;;;;10.70;9.57;;;13.10;99.90;;;;;;5044885;28;20586;-47
2022/09/25 10:15:49;;;;;;;12.27;9.40;;;13.10;99.90;;;;;;5033997;28;20203;-49
2022/09/25 10:18:18;;;;;;;12.03;9.43;;;13.10;99.90;;;;;;5035861;28;20209;-49
2022/09/25 10:20:49;;;;;;;11.93;9.23;;;13.20;99.90;;;;;;5034077;28;20219;-46
2022/09/25 10:23:35;;;;;;;11.53;9.80;;;13.20;99.90;;;;;;5127600;27;20566;-44
2022/09/25 10:26:02;;;;;;;9.90;8.87;;;13.30;99.90;;;;;;5116268;27;20218;-48
2022/09/25 10:28:33;;;;;;;9.20;8.30;;;13.20;99.90;;;;;;5125911;27;20203;-48
2022/09/25 10:31:02;;;;;;;11.60;8.33;;;13.20;99.90;;;;;;5124470;27;20541;-45
2022/09/25 10:33:31;;;;;;;9.87;8.07;;;13.30;99.90;;;;;;5121998;27;20207;-49
2022/09/25 10:35:58;;;;;;;10.93;7.63;;;13.20;99.90;;;;;;5119488;27;20298;-48
2022/09/25 10:38:40;;;;;;;11.20;9.27;;;13.30;99.90;;;;;;5123975;27;20500;-45
2022/09/25 10:41:10;;;;;;;13.57;8.17;;;13.60;99.90;;;;;;5110082;27;20280;-45
2022/09/25 10:43:52;;;;;;;10.10;7.50;;;13.50;99.90;;;;;;5121916;27;20216;-45
2022/09/25 10:50:09;;;;;;;9.30;7.17;;;13.40;99.90;;;;;;5125702;27;20280;-46
2022/09/25 10:52:05;;;;;;;8.37;7.07;;;13.20;99.90;;;;;;5100692;27;20632;-44
2022/09/25 10:54:34;;;;;;;7.87;6.53;;;13.10;99.90;;;;;;5121798;27;20193;-44
2022/09/25 10:57:01;;;;;;;9.20;7.83;;;13.20;99.90;;;;;;5116197;27;20221;-45
2022/09/25 10:59:29;;;;;;;11.07;7.43;;;13.10;99.90;;;;;;5124535;27;20267;-45
2022/09/25 11:01:56;;;;;;;9.20;7.40;;;13.10;99.90;;;;;;5120838;27;20804;-49
2022/09/25 11:04:27;;;;;;;10.07;8.30;;;13.10;99.90;;;;;;5117299;27;20205;-46
2022/09/25 11:06:57;;;;;;;11.53;8.10;;;13.10;99.90;;;;;;5106896;27;20221;-45
2022/09/25 11:09:26;;;;;;;10.40;7.90;;;13.10;99.90;;;;;;5110310;27;20197;-45
2022/09/25 11:12:09;;;;;;;9.10;7.80;;;13.10;99.90;;;;;;5110996;27;20246;-47
2022/09/25 11:14:36;;;;;;;8.00;7.30;;;13.10;99.90;;;;;;5118562;27;20196;-46
2022/09/25 11:17:05;;;;;;;10.60;8.17;;;13.10;99.90;;;;;;5116745;27;20221;-46
2022/09/25 11:19:34;;;;;;;11.53;7.83;;;13.10;99.90;;;;;;5114505;27;20201;-48
2022/09/25 11:22:10;;;;;;;13.20;8.47;;;13.10;99.90;;;;;;5117728;28;20216;-46
2022/09/25 11:24:49;;;;;;;12.23;8.37;;;13.10;99.90;;;;;;5103603;27;20310;-45
2022/09/25 11:27:22;;;;;;;11.67;9.07;;;13.10;99.90;;;;;;5112166;27;20228;-44
2022/09/25 11:29:57;;;;;;;9.50;8.53;;;13.20;99.90;;;;;;5109012;27;20220;-46
2022/09/25 11:32:29;;;;;;;11.87;9.17;;;13.20;99.90;;;;;;5116000;27;20645;-47
2022/09/25 11:35:18;;;;;;;9.47;8.40;;;13.20;99.90;;;;;;5092150;28;20197;-45
2022/09/25 11:37:52;;;;;;;9.67;8.20;;;13.20;99.90;;;;;;5086283;27;20801;-44
2022/09/25 11:43:43;;;;;;;10.87;9.30;;;13.10;99.90;;;;;;5093833;27;20319;-45
2022/09/25 11:46:20;;;;;;;11.83;8.37;;;13.10;99.90;;;;;;5105388;27;20216;-50
2022/09/25 11:48:59;;;;;;;11.10;7.80;;;13.10;99.90;;;;;;5104983;27;20181;-47
2022/09/25 11:51:39;;;;;;;8.83;7.17;;;13.10;99.90;;;;;;5091684;28;20670;-45
2022/09/25 11:54:18;;;;;;;8.83;7.03;;;13.10;99.90;;;;;;5082090;27;20236;-45
2022/09/25 11:56:51;;;;;;;8.33;7.40;;;12.90;99.90;;;;;;5082704;27;20475;-46
2022/09/25 11:59:32;;;;;;;7.77;6.73;;;12.90;99.90;;;;;;5111239;27;20239;-47
2022/09/25 12:02:16;;;;;;;8.77;7.63;;;13.00;99.90;;;;;;5100437;28;20201;-50
2022/09/25 12:05:00;;;;;;;8.20;7.17;;;13.00;99.90;;;;;;5090052;28;20205;-47
2022/09/25 12:07:43;;;;;;;7.87;7.03;;;13.10;99.90;;;;;;5099169;28;20695;-47
2022/09/25 12:10:23;;;;;;;8.83;6.70;;;13.10;99.90;;;;;;5097654;27;20207;-45
2022/09/25 12:12:59;;;;;;;8.17;7.17;;;13.20;99.90;;;;;;5087485;27;20277;-48
2022/09/25 12:15:39;;;;;;;7.50;6.53;;;13.20;99.90;;;;;;5104186;27;20212;-45
2022/09/25 12:18:19;;;;;;;7.77;6.40;;;13.20;99.90;;;;;;5098373;28;20205;-50
2022/09/25 12:20:56;;;;;;;6.00;5.07;;;13.20;99.90;;;;;;5090374;27;20197;-49
2022/09/25 12:23:30;;;;;;;7.30;5.80;;;13.10;99.90;;;;;;5100926;28;20216;-49
2022/09/25 12:26:10;;;;;;;5.90;5.40;;;13.10;99.90;;;;;;5087895;27;20225;-47
2022/09/25 12:28:51;;;;;;;6.43;5.80;;;13.10;99.90;;;;;;5088986;27;20205;-50
2022/09/25 12:31:29;;;;;;;7.23;6.53;;;13.10;99.90;;;;;;5103927;27;20200;-45
2022/09/25 12:34:07;;;;;;;9.40;6.63;;;13.10;99.90;;;;;;5108718;27;20196;-45
2022/09/25 12:36:39;;;;;;;7.73;6.57;;;13.10;99.90;;;;;;5097138;27;20229;-46
2022/09/25 12:39:24;;;;;;;10.20;7.20;;;13.20;99.90;;;;;;5107854;27;20201;-46
2022/09/25 12:41:55;;;;;;;8.60;6.33;;;13.30;99.90;;;;;;5102010;27;20221;-45
2022/09/25 12:44:31;;;;;;;9.97;6.83;;;13.30;99.90;;;;;;5090564;27;20213;-49
2022/09/25 12:47:04;;;;;;;7.53;6.00;;;13.40;99.90;;;;;;5108470;27;20289;-45
2022/09/25 12:49:36;;;;;;;5.20;4.77;;;13.40;99.90;;;;;;5096733;27;20190;-50
2022/09/25 12:52:11;;;;;;;5.27;4.87;;;13.30;99.90;;;;;;5089866;27;20216;-46
2022/09/25 12:54:46;;;;;;;5.63;5.13;;;13.30;99.90;;;;;;5094626;27;20192;-47
2022/09/25 12:57:19;;;;;;;5.27;4.80;;;13.30;99.90;;;;;;5093779;27;20221;-45
2022/09/25 12:59:52;;;;;;;8.03;4.47;;;13.30;99.90;;;;;;5092017;27;20932;-46
2022/09/25 13:02:28;;;;;;;6.03;4.40;;;13.30;99.90;;;;;;5110102;27;20269;-45
2022/09/25 13:05:11;;;;;;;5.60;4.47;;;13.40;99.90;;;;;;5098959;28;20416;-45
2022/09/25 13:07:46;;;;;;;5.17;4.63;;;13.40;99.90;;;;;;5093782;27;20559;-46
2022/09/25 13:10:23;;;;;;;4.47;3.80;;;13.40;99.90;;;;;;5104133;28;20204;-46
2022/09/25 13:12:53;;;;;;;4.10;3.70;;;13.50;99.90;;;;;;5095847;27;20986;-47